Time;durP1;ratioP1;P1;durP2;ratioP2;P2;SDS_P1;SDS_P2;PMS_P1;PMS_P2;Temp;Humidity;BMP_temperature;BMP_pressure;BME280_temperature;BME280_humidity;BME280_pressure;Samples;Min_cycle;Max_cycle;Signal;HPM_P1;HPM_P2
2022/07/14 00:00:32;;;;;;;22.10;20.07;;;18.90;99.90;;;;;;5097770;28;21067;-66
2022/07/14 00:03:01;;;;;;;20.23;18.83;;;18.70;99.90;;;;;;5096720;28;20799;-66
2022/07/14 00:05:28;;;;;;;21.10;19.40;;;18.70;99.90;;;;;;5097064;28;20464;-67
2022/07/14 00:07:55;;;;;;;22.80;20.80;;;18.60;99.90;;;;;;5097115;28;20469;-68
2022/07/14 00:10:23;;;;;;;22.60;20.30;;;18.50;99.90;;;;;;5096647;28;20948;-66
2022/07/14 00:12:49;;;;;;;21.10;19.30;;;18.40;99.90;;;;;;5089368;28;20900;-65
2022/07/14 00:15:16;;;;;;;27.63;19.83;;;18.30;99.90;;;;;;5095375;28;20995;-66
2022/07/14 00:17:44;;;;;;;21.60;19.53;;;18.30;99.90;;;;;;5098985;28;20465;-69
2022/07/14 00:20:13;;;;;;;22.57;20.03;;;18.20;99.90;;;;;;5091311;28;21051;-66
2022/07/14 00:22:40;;;;;;;21.17;19.23;;;18.10;99.90;;;;;;5089992;28;20457;-66
2022/07/14 00:25:08;;;;;;;24.87;20.37;;;18.10;99.90;;;;;;5093665;28;20470;-66
2022/07/14 00:27:37;;;;;;;21.47;19.37;;;18.10;99.90;;;;;;5089116;28;20489;-67
2022/07/14 00:30:06;;;;;;;22.07;19.90;;;18.10;99.90;;;;;;5092376;28;20552;-68
2022/07/14 00:32:33;;;;;;;23.47;19.03;;;18.00;99.90;;;;;;5100102;28;20489;-66
2022/07/14 00:35:02;;;;;;;20.43;18.23;;;18.00;99.90;;;;;;5092955;28;20470;-65
2022/07/14 00:37:31;;;;;;;20.47;17.17;;;18.00;99.90;;;;;;5097043;28;20453;-66
2022/07/14 00:40:03;;;;;;;19.57;17.33;;;18.00;99.90;;;;;;5093603;28;20517;-66
2022/07/14 00:42:32;;;;;;;17.33;15.83;;;17.90;99.90;;;;;;5096571;28;20458;-67
2022/07/14 00:45:00;;;;;;;18.80;14.10;;;17.90;99.90;;;;;;5094319;28;20454;-67
2022/07/14 00:47:27;;;;;;;18.10;12.80;;;17.90;99.90;;;;;;5095248;28;20461;-65
2022/07/14 00:49:55;;;;;;;20.60;13.53;;;17.90;99.90;;;;;;5091710;28;20499;-66
2022/07/14 00:52:23;;;;;;;25.00;13.27;;;17.90;99.90;;;;;;5095721;28;20462;-65
2022/07/14 00:54:51;;;;;;;19.17;11.73;;;17.90;99.90;;;;;;5100348;28;20472;-66
2022/07/14 00:57:19;;;;;;;12.10;10.70;;;17.90;99.90;;;;;;5089223;28;20462;-66
2022/07/14 00:59:47;;;;;;;15.97;11.20;;;17.90;99.90;;;;;;5095973;28;20460;-66
2022/07/14 01:02:14;;;;;;;16.00;10.77;;;17.90;99.90;;;;;;5097370;28;20458;-66
2022/07/14 01:04:41;;;;;;;16.70;10.30;;;18.00;99.90;;;;;;5091444;28;20470;-66
2022/07/14 01:07:10;;;;;;;21.93;10.37;;;17.90;99.90;;;;;;5089178;28;20469;-66
2022/07/14 01:09:38;;;;;;;18.10;11.10;;;17.90;99.90;;;;;;5100864;28;20481;-66
2022/07/14 01:12:07;;;;;;;16.30;11.23;;;17.90;99.90;;;;;;5096311;28;20461;-67
2022/07/14 01:14:35;;;;;;;12.10;10.73;;;17.90;99.90;;;;;;5093056;28;20493;-67
2022/07/14 01:17:03;;;;;;;20.57;11.73;;;18.00;99.90;;;;;;5092699;28;20469;-66
2022/07/14 01:19:32;;;;;;;14.37;11.67;;;18.00;99.90;;;;;;5094257;28;20467;-66
2022/07/14 01:22:00;;;;;;;23.80;10.90;;;18.00;99.90;;;;;;5093096;28;20564;-67
2022/07/14 01:24:28;;;;;;;10.80;9.90;;;18.00;99.90;;;;;;5089229;28;20462;-67
2022/07/14 01:26:55;;;;;;;11.33;10.13;;;18.10;99.90;;;;;;5100619;28;21068;-67
2022/07/14 01:29:23;;;;;;;16.27;11.20;;;18.00;99.90;;;;;;5097580;28;20469;-67
2022/07/14 01:31:51;;;;;;;12.70;11.40;;;17.90;99.90;;;;;;5091573;28;20487;-67
2022/07/14 01:34:18;;;;;;;14.07;11.47;;;17.90;99.90;;;;;;5090876;28;20656;-66
2022/07/14 01:36:45;;;;;;;21.20;10.20;;;17.90;99.90;;;;;;5100705;28;20845;-66
2022/07/14 01:39:14;;;;;;;13.23;10.07;;;17.90;99.90;;;;;;5091382;28;20547;-66
2022/07/14 01:41:41;;;;;;;11.50;10.50;;;18.00;99.90;;;;;;5097389;28;21068;-66
2022/07/14 01:44:10;;;;;;;11.63;9.77;;;17.90;99.90;;;;;;5095666;28;20529;-66
2022/07/14 01:46:37;;;;;;;15.23;10.60;;;17.90;99.90;;;;;;5096543;28;20464;-67
2022/07/14 01:49:04;;;;;;;18.63;10.50;;;17.80;99.90;;;;;;5098986;28;20468;-66
2022/07/14 01:51:31;;;;;;;10.83;9.77;;;17.80;99.90;;;;;;5092258;28;20494;-67
2022/07/14 01:53:59;;;;;;;13.23;10.03;;;17.70;99.90;;;;;;5090317;28;20466;-66
2022/07/14 01:56:27;;;;;;;19.13;10.60;;;17.80;99.90;;;;;;5093595;28;21042;-67
2022/07/14 01:58:54;;;;;;;13.83;10.03;;;17.80;99.90;;;;;;5089457;28;20822;-66
2022/07/14 02:04:05;;;;;;;24.60;9.43;;;17.80;99.90;;;;;;5090736;28;20453;-66
2022/07/14 02:06:33;;;;;;;16.50;14.80;;;17.70;99.90;;;;;;5097273;28;20812;-65
2022/07/14 02:09:01;;;;;;;17.63;15.83;;;17.70;99.90;;;;;;5097234;28;20473;-67
2022/07/14 02:14:14;;;;;;;23.07;16.83;;;17.60;99.90;;;;;;5089858;28;20461;-65
2022/07/14 02:16:41;;;;;;;17.40;15.83;;;17.50;99.90;;;;;;5098556;28;20478;-66
2022/07/14 02:19:08;;;;;;;21.07;16.03;;;17.40;99.90;;;;;;5096425;28;20473;-66
2022/07/14 02:21:35;;;;;;;20.00;16.33;;;17.40;99.90;;;;;;5093234;28;20486;-66
2022/07/14 02:24:02;;;;;;;17.00;15.13;;;17.30;99.90;;;;;;5094968;28;20469;-66
2022/07/14 02:26:31;;;;;;;20.40;15.30;;;17.20;99.90;;;;;;5090890;28;20510;-65
2022/07/14 02:28:58;;;;;;;19.40;16.27;;;17.10;99.90;;;;;;5088311;28;20556;-67
2022/07/14 02:31:26;;;;;;;23.13;14.73;;;17.10;99.90;;;;;;5090236;28;20823;-66
2022/07/14 02:33:55;;;;;;;20.20;15.27;;;17.10;99.90;;;;;;5092456;28;20482;-66
2022/07/14 02:36:23;;;;;;;18.30;14.97;;;17.00;99.90;;;;;;5093109;28;20819;-66
2022/07/14 02:38:51;;;;;;;15.67;14.10;;;17.10;99.90;;;;;;5095339;28;20469;-66
2022/07/14 02:41:18;;;;;;;14.57;13.10;;;17.10;99.90;;;;;;5093539;28;20497;-65
2022/07/14 02:43:46;;;;;;;16.30;12.27;;;16.90;99.90;;;;;;5090877;28;20541;-65
2022/07/14 02:46:13;;;;;;;19.13;13.03;;;16.90;99.90;;;;;;5097226;28;20469;-67
2022/07/14 02:48:40;;;;;;;12.80;11.60;;;16.90;99.90;;;;;;5087291;28;20470;-65
2022/07/14 02:51:09;;;;;;;19.63;9.63;;;17.00;99.90;;;;;;5091518;28;20472;-65
2022/07/14 02:53:36;;;;;;;24.07;11.23;;;17.00;99.90;;;;;;5094246;28;20457;-66
2022/07/14 02:56:05;;;;;;;18.40;10.80;;;17.00;99.90;;;;;;5093079;28;20913;-65
2022/07/14 02:58:32;;;;;;;21.73;9.60;;;16.90;99.90;;;;;;5100903;28;20467;-66
2022/07/14 03:01:04;;;;;;;12.20;9.10;;;16.90;99.90;;;;;;5094573;28;20838;-66
2022/07/14 03:03:34;;;;;;;25.87;11.27;;;16.80;99.90;;;;;;5095096;28;20462;-67
2022/07/14 03:06:01;;;;;;;15.20;8.90;;;16.80;99.90;;;;;;5093297;28;20802;-66
2022/07/14 03:08:29;;;;;;;12.90;9.20;;;16.80;99.90;;;;;;5090762;28;20471;-66
2022/07/14 03:10:56;;;;;;;12.63;8.70;;;16.80;99.90;;;;;;5096694;28;20461;-67
2022/07/14 03:13:24;;;;;;;24.40;9.87;;;16.70;99.90;;;;;;5091685;28;20828;-66
2022/07/14 03:15:51;;;;;;;19.77;9.90;;;16.80;99.90;;;;;;5099125;28;20739;-65
2022/07/14 03:18:19;;;;;;;14.73;9.00;;;16.90;99.90;;;;;;5094871;28;20450;-66
2022/07/14 03:23:27;;;;;;;12.20;8.83;;;16.90;99.90;;;;;;5094767;28;20459;-65
2022/07/14 03:25:53;;;;;;;12.17;10.33;;;16.80;99.90;;;;;;5088924;28;21150;-67
2022/07/14 03:28:20;;;;;;;19.77;9.30;;;16.80;99.90;;;;;;5095003;28;20484;-66
2022/07/14 03:30:48;;;;;;;12.47;9.27;;;16.80;99.90;;;;;;5097586;28;20834;-66
2022/07/14 03:33:15;;;;;;;16.90;8.87;;;16.80;99.90;;;;;;5097623;28;20996;-66
2022/07/14 03:35:43;;;;;;;16.97;8.87;;;16.70;99.90;;;;;;5095450;28;20484;-66
2022/07/14 03:38:10;;;;;;;21.60;9.23;;;16.80;99.90;;;;;;5093962;28;20476;-66
2022/07/14 03:40:37;;;;;;;27.43;9.60;;;16.70;99.90;;;;;;5094957;28;21566;-66
2022/07/14 03:43:04;;;;;;;15.70;10.20;;;16.70;99.90;;;;;;5098078;28;20457;-65
2022/07/14 03:45:31;;;;;;;21.53;10.00;;;16.70;99.90;;;;;;5099505;28;20465;-65
2022/07/14 03:47:58;;;;;;;28.77;10.03;;;16.70;99.90;;;;;;5100251;27;20457;-65
2022/07/14 03:50:26;;;;;;;15.13;8.80;;;16.80;99.90;;;;;;5094342;28;21100;-66
2022/07/14 03:52:55;;;;;;;24.07;9.63;;;16.80;99.90;;;;;;5094019;28;20464;-65
2022/07/14 03:55:22;;;;;;;20.07;9.60;;;16.80;99.90;;;;;;5097173;28;20483;-66
2022/07/14 03:57:49;;;;;;;17.97;9.20;;;16.80;99.90;;;;;;5101562;28;20510;-65
2022/07/14 04:00:16;;;;;;;21.40;9.30;;;16.70;99.90;;;;;;5089547;28;20485;-65
2022/07/14 04:02:43;;;;;;;22.20;9.23;;;16.80;99.90;;;;;;5075810;28;20849;-66
2022/07/14 04:05:10;;;;;;;19.40;9.30;;;16.80;99.90;;;;;;5070628;28;20469;-67
2022/07/14 04:07:37;;;;;;;23.20;11.03;;;16.80;99.90;;;;;;5070223;28;20501;-66
2022/07/14 04:10:06;;;;;;;21.20;9.77;;;16.80;99.90;;;;;;5070402;28;20476;-67
2022/07/14 04:12:33;;;;;;;22.40;9.70;;;16.80;99.90;;;;;;5070483;28;20467;-66
2022/07/14 04:14:59;;;;;;;32.43;10.00;;;16.90;99.90;;;;;;5070505;28;20629;-65
2022/07/14 04:17:26;;;;;;;19.90;10.60;;;17.00;99.90;;;;;;5070902;28;20560;-65
2022/07/14 04:19:53;;;;;;;12.33;9.50;;;17.00;99.90;;;;;;5069475;28;20557;-66
2022/07/14 04:22:20;;;;;;;18.93;9.30;;;17.00;99.90;;;;;;5068302;28;20489;-67
2022/07/14 04:24:47;;;;;;;20.37;10.97;;;16.90;99.90;;;;;;5071177;28;20871;-67
2022/07/14 04:27:16;;;;;;;14.90;9.83;;;16.90;99.90;;;;;;5070174;28;21593;-66
2022/07/14 04:29:44;;;;;;;18.63;10.10;;;17.00;99.90;;;;;;5069589;28;20820;-66
2022/07/14 04:32:11;;;;;;;14.73;9.70;;;17.00;99.90;;;;;;5068835;28;20465;-67
2022/07/14 04:34:38;;;;;;;22.30;11.13;;;17.00;99.90;;;;;;5070379;28;20552;-66
2022/07/14 04:37:05;;;;;;;13.63;10.00;;;17.00;99.90;;;;;;5070819;28;21309;-67
2022/07/14 04:39:32;;;;;;;21.60;10.53;;;17.00;99.90;;;;;;5069975;28;20525;-67
2022/07/14 04:41:59;;;;;;;16.60;10.13;;;17.10;99.90;;;;;;5069362;28;20495;-67
2022/07/14 04:44:27;;;;;;;19.10;9.77;;;17.00;99.90;;;;;;5070698;28;20900;-66
2022/07/14 04:46:54;;;;;;;19.67;9.80;;;16.90;99.90;;;;;;5069841;28;20458;-67
2022/07/14 04:52:05;;;;;;;23.33;11.07;;;16.70;99.90;;;;;;5083620;28;20795;-67
2022/07/14 04:54:34;;;;;;;19.47;10.30;;;16.70;99.90;;;;;;5069630;28;21003;-67
2022/07/14 04:57:03;;;;;;;13.80;9.80;;;16.60;99.90;;;;;;5069940;28;20565;-65
2022/07/14 04:59:32;;;;;;;26.53;10.90;;;16.50;99.90;;;;;;5068684;28;20995;-66
2022/07/14 05:02:00;;;;;;;21.17;10.37;;;16.50;99.90;;;;;;5069541;28;20484;-66
2022/07/14 05:04:27;;;;;;;21.20;11.10;;;16.30;99.90;;;;;;5069025;28;20481;-66
2022/07/14 05:06:55;;;;;;;16.37;10.63;;;16.40;99.90;;;;;;5068445;28;20473;-67
2022/07/14 05:09:24;;;;;;;26.67;11.37;;;16.40;99.90;;;;;;5068848;28;20807;-66
2022/07/14 05:11:52;;;;;;;14.23;11.43;;;16.50;99.90;;;;;;5070036;28;20910;-66
2022/07/14 05:14:19;;;;;;;19.87;11.50;;;16.60;99.90;;;;;;5068324;28;20765;-66
2022/07/14 05:16:49;;;;;;;16.53;10.70;;;16.80;99.90;;;;;;5069373;28;20588;-67
2022/07/14 05:19:16;;;;;;;25.23;11.43;;;17.00;99.90;;;;;;5068576;28;21026;-68
2022/07/14 05:21:43;;;;;;;24.43;12.20;;;17.20;99.90;;;;;;5069685;28;20858;-67
2022/07/14 05:24:10;;;;;;;17.00;12.27;;;17.30;99.90;;;;;;5070145;28;20597;-67
2022/07/14 05:26:38;;;;;;;19.67;12.97;;;17.50;99.90;;;;;;5069179;28;20486;-67
2022/07/14 05:29:05;;;;;;;17.83;12.57;;;17.60;99.90;;;;;;5068576;28;20553;-68
2022/07/14 05:31:32;;;;;;;24.13;12.87;;;17.80;99.90;;;;;;5069447;28;20547;-67
2022/07/14 05:34:01;;;;;;;15.90;13.57;;;17.90;99.90;;;;;;5069013;28;20477;-68
2022/07/14 05:36:28;;;;;;;19.90;14.20;;;18.00;99.90;;;;;;5068416;28;20834;-68
2022/07/14 05:38:55;;;;;;;18.10;13.90;;;18.10;99.90;;;;;;5068145;28;20469;-68
2022/07/14 05:41:22;;;;;;;21.73;14.40;;;18.00;99.90;;;;;;5069470;28;20823;-68
2022/07/14 05:43:50;;;;;;;18.07;13.93;;;18.10;99.90;;;;;;5067260;28;20469;-68
2022/07/14 05:46:17;;;;;;;19.53;14.23;;;18.20;99.90;;;;;;5068364;28;20466;-67
2022/07/14 05:48:44;;;;;;;22.27;15.00;;;18.30;99.90;;;;;;5066505;28;20466;-67
2022/07/14 05:51:14;;;;;;;27.47;14.40;;;18.20;99.90;;;;;;5066275;28;21096;-67
2022/07/14 05:53:43;;;;;;;22.23;14.80;;;18.30;99.90;;;;;;5085777;28;20564;-68
2022/07/14 05:56:11;;;;;;;22.37;14.43;;;18.40;99.90;;;;;;5076138;28;20469;-67
2022/07/14 05:58:40;;;;;;;17.70;14.60;;;18.50;99.90;;;;;;5068502;28;20466;-68
2022/07/14 06:01:08;;;;;;;19.53;15.03;;;18.70;99.90;;;;;;5064358;28;20458;-67
2022/07/14 06:03:35;;;;;;;18.30;15.33;;;18.70;99.90;;;;;;5066511;28;21027;-68
2022/07/14 06:06:03;;;;;;;24.30;15.47;;;18.80;99.90;;;;;;5066864;28;20918;-69
2022/07/14 06:08:31;;;;;;;22.00;15.63;;;19.10;99.90;;;;;;5067518;28;20552;-67
2022/07/14 06:11:00;;;;;;;24.20;16.23;;;19.30;99.90;;;;;;5067238;28;20462;-68
2022/07/14 06:13:29;;;;;;;20.70;17.20;;;19.40;99.90;;;;;;5067747;28;20803;-67
2022/07/14 06:15:56;;;;;;;25.57;16.13;;;19.40;99.90;;;;;;5066463;28;20549;-68
2022/07/14 06:18:24;;;;;;;17.60;14.93;;;19.40;99.90;;;;;;5067989;28;20710;-66
2022/07/14 06:20:50;;;;;;;23.17;16.67;;;19.50;99.90;;;;;;5066675;28;20461;-68
2022/07/14 06:23:17;;;;;;;20.20;16.93;;;19.50;99.90;;;;;;5066335;28;20518;-67
2022/07/14 06:25:46;;;;;;;26.37;16.20;;;19.70;99.90;;;;;;5067017;28;22841;-68
2022/07/14 06:28:13;;;;;;;19.20;16.03;;;19.50;99.90;;;;;;5066546;28;20574;-67
2022/07/14 06:30:40;;;;;;;17.60;15.73;;;19.50;99.90;;;;;;5067390;28;20472;-67
2022/07/14 06:33:07;;;;;;;25.47;16.47;;;19.60;99.90;;;;;;5067128;28;20482;-66
2022/07/14 06:35:34;;;;;;;25.23;16.00;;;19.50;99.90;;;;;;5066697;28;20477;-67
2022/07/14 06:38:00;;;;;;;21.23;16.40;;;19.60;99.90;;;;;;5067547;28;20476;-68
2022/07/14 06:40:27;;;;;;;23.00;16.60;;;19.70;99.90;;;;;;5067127;28;20470;-68
2022/07/14 06:42:57;;;;;;;18.93;16.33;;;19.90;99.90;;;;;;5067414;28;20493;-68
2022/07/14 06:45:23;;;;;;;20.90;16.23;;;19.80;99.90;;;;;;5067448;28;20457;-68
2022/07/14 06:47:51;;;;;;;20.00;15.97;;;20.00;99.90;;;;;;5066401;28;20474;-66
2022/07/14 06:50:18;;;;;;;26.63;17.50;;;20.10;99.90;;;;;;5066663;28;20462;-68
2022/07/14 06:52:45;;;;;;;26.83;17.70;;;20.30;99.90;;;;;;5066193;28;20477;-66
2022/07/14 06:55:12;;;;;;;24.93;18.03;;;20.40;99.90;;;;;;5067454;28;20449;-66
2022/07/14 06:57:38;;;;;;;22.50;18.10;;;20.40;99.90;;;;;;5066494;28;21063;-67
2022/07/14 07:00:09;;;;;;;30.10;19.73;;;20.50;99.90;;;;;;5067731;28;20822;-66
2022/07/14 07:02:36;;;;;;;22.77;19.03;;;20.60;99.90;;;;;;5070910;28;20511;-68
2022/07/14 07:07:51;;;;;;;24.27;19.53;;;20.90;99.90;;;;;;5070902;28;20469;-66
2022/07/14 07:10:19;;;;;;;28.60;19.20;;;20.80;99.90;;;;;;5070646;28;20450;-67
2022/07/14 07:12:46;;;;;;;26.30;19.00;;;20.90;99.90;;;;;;5071036;28;20827;-66
2022/07/14 07:15:14;;;;;;;26.87;17.47;;;20.70;99.90;;;;;;5070330;28;20466;-67
2022/07/14 07:17:41;;;;;;;26.47;18.10;;;21.00;99.90;;;;;;5069174;28;20476;-67
2022/07/14 07:20:10;;;;;;;20.50;18.43;;;21.10;99.90;;;;;;5071057;28;20473;-66
2022/07/14 07:22:38;;;;;;;25.07;17.47;;;21.30;99.90;;;;;;5070518;28;20493;-66
2022/07/14 07:25:06;;;;;;;21.80;16.97;;;21.40;99.90;;;;;;5069182;28;21036;-66
2022/07/14 07:27:33;;;;;;;24.67;16.80;;;21.50;99.90;;;;;;5068966;28;20732;-66
2022/07/14 07:30:00;;;;;;;24.53;17.17;;;21.70;99.90;;;;;;5069409;28;20733;-66
2022/07/14 07:32:29;;;;;;;19.67;17.07;;;21.90;99.90;;;;;;5068969;28;22564;-67
2022/07/14 07:34:56;;;;;;;20.83;16.90;;;21.90;99.90;;;;;;5069383;28;20458;-66
2022/07/14 07:37:23;;;;;;;30.60;17.07;;;21.80;99.90;;;;;;5068720;28;20470;-68
2022/07/14 07:39:49;;;;;;;29.43;17.70;;;21.40;99.90;;;;;;5070809;28;20999;-66
2022/07/14 07:42:16;;;;;;;25.10;16.60;;;21.60;99.90;;;;;;5070033;28;20476;-68
2022/07/14 07:44:43;;;;;;;22.33;17.37;;;21.30;99.90;;;;;;5070570;28;20461;-67
2022/07/14 07:47:10;;;;;;;23.03;17.00;;;21.30;99.90;;;;;;5069715;28;20458;-68
2022/07/14 07:49:38;;;;;;;19.20;16.20;;;21.40;99.90;;;;;;5070482;28;20472;-68
2022/07/14 07:52:06;;;;;;;20.57;17.20;;;21.70;99.90;;;;;;5069243;28;20878;-66
2022/07/14 07:54:33;;;;;;;22.30;17.67;;;22.00;99.90;;;;;;5071129;28;20608;-68
2022/07/14 07:57:01;;;;;;;21.63;17.13;;;22.50;99.90;;;;;;5069464;28;20470;-67
2022/07/14 07:59:28;;;;;;;21.93;18.00;;;22.80;99.90;;;;;;5069676;28;21180;-67
2022/07/14 08:01:55;;;;;;;20.00;17.17;;;22.90;99.90;;;;;;5069389;28;21230;-67
2022/07/14 08:04:22;;;;;;;23.97;16.93;;;23.00;99.90;;;;;;5068845;28;21088;-68
2022/07/14 08:06:51;;;;;;;19.37;17.30;;;22.90;99.90;;;;;;5069817;28;20592;-68
2022/07/14 08:09:17;;;;;;;24.23;17.77;;;22.80;99.90;;;;;;5068656;28;20847;-67
2022/07/14 08:11:45;;;;;;;18.43;16.50;;;23.00;99.90;;;;;;5069992;28;20446;-68
2022/07/14 08:16:53;;;;;;;18.87;17.23;;;23.40;99.90;;;;;;5051676;28;20491;-68
2022/07/14 08:19:20;;;;;;;19.73;17.40;;;23.20;99.90;;;;;;5070453;28;20474;-67
2022/07/14 08:21:47;;;;;;;18.53;16.87;;;23.20;99.90;;;;;;5069923;28;20465;-68
2022/07/14 08:24:18;;;;;;;18.13;16.50;;;22.90;99.90;;;;;;5069255;28;20504;-68
2022/07/14 08:26:45;;;;;;;18.37;16.80;;;23.30;99.90;;;;;;5069596;28;20486;-68
2022/07/14 08:29:12;;;;;;;18.10;16.70;;;23.90;99.90;;;;;;5070154;28;20469;-68
2022/07/14 08:31:40;;;;;;;19.17;17.20;;;24.50;99.90;;;;;;5070518;28;20489;-67
2022/07/14 08:34:07;;;;;;;19.40;17.53;;;24.80;99.90;;;;;;5070029;28;20483;-67
2022/07/14 08:36:34;;;;;;;20.13;17.10;;;24.60;99.90;;;;;;5066301;28;20824;-67
2022/07/14 08:39:05;;;;;;;18.43;16.90;;;24.50;99.90;;;;;;5065658;28;20464;-68
2022/07/14 08:41:34;;;;;;;18.63;16.87;;;25.00;99.90;;;;;;5089223;28;20999;-68
2022/07/14 08:44:02;;;;;;;18.40;17.00;;;26.10;99.90;;;;;;5068719;28;22394;-69
2022/07/14 08:46:31;;;;;;;18.10;16.77;;;26.60;96.90;;;;;;5081862;28;20488;-67
2022/07/14 08:48:59;;;;;;;18.70;17.07;;;26.60;95.90;;;;;;5088502;28;20457;-67
2022/07/14 08:51:26;;;;;;;18.87;17.27;;;26.50;92.90;;;;;;5082083;28;20934;-68
2022/07/14 08:53:53;;;;;;;17.77;16.37;;;26.10;92.20;;;;;;5067845;28;20466;-67
2022/07/14 08:56:20;;;;;;;17.23;15.80;;;26.00;91.60;;;;;;5068081;28;20929;-68
2022/07/14 08:58:49;;;;;;;18.07;16.20;;;25.80;88.00;;;;;;5067994;28;20635;-67
2022/07/14 09:01:16;;;;;;;18.43;16.87;;;25.90;90.60;;;;;;5068349;27;20843;-69
2022/07/14 09:03:44;;;;;;;17.60;16.37;;;25.90;90.70;;;;;;5068350;28;20584;-69
2022/07/14 09:06:12;;;;;;;16.97;15.97;;;25.80;91.20;;;;;;5068507;28;20449;-67
2022/07/14 09:08:53;;;;;;;16.80;15.50;;;25.70;91.40;;;;;;5068508;28;21043;-67
2022/07/14 09:11:20;;;;;;;17.17;15.97;;;26.30;80.10;;;;;;5068240;28;21356;-66
2022/07/14 09:13:49;;;;;;;17.73;16.30;;;26.70;80.20;;;;;;5068438;28;20501;-67
2022/07/14 09:16:19;;;;;;;20.23;16.53;;;27.10;81.80;;;;;;5068301;28;21006;-68
2022/07/14 09:19:07;;;;;;;17.33;16.13;;;27.00;77.60;;;;;;5068067;28;20598;-68
2022/07/14 09:21:35;;;;;;;17.47;16.27;;;26.90;80.30;;;;;;5068607;28;20466;-66
2022/07/14 09:24:02;;;;;;;17.20;16.00;;;27.30;77.60;;;;;;5068378;28;21119;-67
2022/07/14 09:26:29;;;;;;;17.97;16.40;;;26.60;78.40;;;;;;5067881;28;20474;-66
2022/07/14 09:28:57;;;;;;;17.03;15.80;;;26.90;79.30;;;;;;5067610;28;20705;-68
2022/07/14 09:31:26;;;;;;;16.90;15.73;;;27.40;81.60;;;;;;5068719;28;20477;-66
2022/07/14 09:33:56;;;;;;;16.97;15.97;;;27.50;75.90;;;;;;5068607;28;20577;-66
2022/07/14 09:36:26;;;;;;;17.40;15.90;;;27.20;77.00;;;;;;5067315;28;20833;-67
2022/07/14 09:38:53;;;;;;;20.17;16.73;;;27.20;78.00;;;;;;5068303;28;20771;-67
2022/07/14 09:41:20;;;;;;;16.70;15.67;;;27.50;76.10;;;;;;5067522;28;20465;-67
2022/07/14 09:44:07;;;;;;;17.27;16.03;;;27.70;71.20;;;;;;5068989;28;20489;-67
2022/07/14 09:46:46;;;;;;;17.03;15.80;;;27.10;70.00;;;;;;5066345;28;20462;-67
2022/07/14 09:49:13;;;;;;;17.23;15.93;;;27.50;72.10;;;;;;5067859;28;20458;-67
2022/07/14 09:51:54;;;;;;;19.57;17.70;;;27.80;68.60;;;;;;5066955;28;20462;-67
2022/07/14 09:54:40;;;;;;;17.93;16.20;;;27.80;66.70;;;;;;5067837;28;21025;-67
2022/07/14 09:57:08;;;;;;;17.33;15.97;;;28.00;65.10;;;;;;5068132;28;20465;-67
2022/07/14 09:59:44;;;;;;;18.27;16.70;;;28.00;62.50;;;;;;5067779;28;20454;-67
2022/07/14 10:02:16;;;;;;;17.17;16.07;;;27.30;63.80;;;;;;5068104;28;20477;-68
2022/07/14 10:04:44;;;;;;;16.20;15.10;;;26.60;67.40;;;;;;5068426;28;20490;-68
2022/07/14 10:07:12;;;;;;;16.93;15.73;;;27.00;69.80;;;;;;5067390;28;20873;-67
2022/07/14 10:09:42;;;;;;;16.43;15.33;;;27.50;66.00;;;;;;5068176;28;20458;-68
2022/07/14 10:12:10;;;;;;;15.50;14.57;;;28.10;62.80;;;;;;5067706;28;20454;-67
2022/07/14 10:14:38;;;;;;;16.10;15.07;;;28.40;60.30;;;;;;5066598;28;20797;-68
2022/07/14 10:17:07;;;;;;;17.40;15.63;;;28.50;61.70;;;;;;5066794;28;20466;-67
2022/07/14 10:19:35;;;;;;;16.60;15.33;;;28.50;60.30;;;;;;5067268;28;20477;-68
2022/07/14 10:22:02;;;;;;;16.43;15.13;;;28.20;61.30;;;;;;5067467;28;20975;-69
2022/07/14 10:24:30;;;;;;;15.60;14.70;;;28.10;61.50;;;;;;5067539;28;20493;-68
2022/07/14 10:26:58;;;;;;;16.40;15.30;;;27.90;61.60;;;;;;5068024;28;20477;-67
2022/07/14 10:29:25;;;;;;;16.37;15.27;;;27.60;64.30;;;;;;5067020;28;20473;-68
2022/07/14 10:32:12;;;;;;;17.20;15.87;;;27.50;62.90;;;;;;5067585;28;20457;-68
2022/07/14 10:34:46;;;;;;;17.37;16.00;;;27.50;64.40;;;;;;5092050;28;20508;-67
2022/07/14 10:37:20;;;;;;;18.50;16.90;;;27.80;64.00;;;;;;5093587;28;20461;-68
2022/07/14 10:39:50;;;;;;;17.30;15.97;;;28.30;62.00;;;;;;5092273;28;20461;-70
2022/07/14 10:42:26;;;;;;;17.40;16.10;;;28.60;59.40;;;;;;5085334;28;20478;-69
2022/07/14 10:44:54;;;;;;;17.00;15.90;;;29.30;57.90;;;;;;5067977;28;20520;-68
2022/07/14 10:47:25;;;;;;;16.37;15.37;;;29.50;57.20;;;;;;5066994;28;20552;-69
2022/07/14 10:50:08;;;;;;;16.70;15.70;;;29.50;57.90;;;;;;5067859;28;20503;-69
2022/07/14 10:52:37;;;;;;;16.73;15.40;;;29.90;55.90;;;;;;5066423;28;20458;-68
2022/07/14 10:55:15;;;;;;;16.27;15.37;;;29.10;54.00;;;;;;5067126;28;20474;-68
2022/07/14 10:58:11;;;;;;;15.53;14.70;;;28.40;55.20;;;;;;5067590;28;21314;-68
2022/07/14 11:00:56;;;;;;;16.07;15.17;;;27.80;57.00;;;;;;5054268;28;20470;-69
2022/07/14 11:03:26;;;;;;;16.53;15.17;;;27.80;57.70;;;;;;5067274;28;21110;-68
2022/07/14 11:06:12;;;;;;;16.60;15.50;;;28.10;58.00;;;;;;5067588;28;20470;-67
2022/07/14 11:08:41;;;;;;;17.37;16.13;;;28.90;57.60;;;;;;5067185;28;20470;-67
2022/07/14 11:11:19;;;;;;;17.47;16.10;;;29.60;56.80;;;;;;5067217;28;20474;-69
2022/07/14 11:14:10;;;;;;;17.30;16.03;;;29.60;54.20;;;;;;5067482;28;20468;-67
2022/07/14 11:16:57;;;;;;;16.37;15.33;;;30.20;54.90;;;;;;5066695;28;22523;-66
2022/07/14 11:19:33;;;;;;;17.27;15.97;;;30.40;53.70;;;;;;5067586;28;20497;-67
2022/07/14 11:22:18;;;;;;;16.87;15.43;;;29.50;55.20;;;;;;5067104;28;20494;-67
2022/07/14 11:24:47;;;;;;;16.80;15.70;;;29.00;55.30;;;;;;5066948;28;20491;-66
2022/07/14 11:27:31;;;;;;;16.73;15.50;;;29.10;55.40;;;;;;5066240;28;20505;-69
2022/07/14 11:29:59;;;;;;;16.33;15.23;;;28.90;55.40;;;;;;5067709;28;20545;-69
2022/07/14 11:32:30;;;;;;;16.57;15.47;;;29.40;54.60;;;;;;5067165;28;20566;-67
2022/07/14 11:38:23;;;;;;;17.30;16.17;;;29.90;53.70;;;;;;5084608;28;20487;-66
2022/07/14 11:40:51;;;;;;;16.40;15.50;;;29.20;53.20;;;;;;5086166;28;20468;-69
2022/07/14 11:43:41;;;;;;;17.00;15.80;;;28.80;53.50;;;;;;5092690;28;20465;-66
2022/07/14 11:46:09;;;;;;;17.23;16.17;;;29.30;53.90;;;;;;5087567;28;20457;-68
2022/07/14 11:48:38;;;;;;;17.63;16.13;;;29.80;53.30;;;;;;5070048;28;20458;-66
2022/07/14 11:51:09;;;;;;;17.23;16.03;;;29.70;51.70;;;;;;5070228;28;20454;-66
2022/07/14 11:53:36;;;;;;;16.37;15.47;;;30.20;50.60;;;;;;5070099;28;21254;-66
2022/07/14 11:56:06;;;;;;;16.50;15.53;;;30.70;50.40;;;;;;5066970;28;21081;-66
2022/07/14 11:58:33;;;;;;;17.73;16.37;;;29.90;50.30;;;;;;5067576;28;20458;-67
2022/07/14 12:01:01;;;;;;;17.03;15.53;;;30.20;50.30;;;;;;5067665;28;21408;-66
2022/07/14 12:03:29;;;;;;;16.87;15.77;;;29.90;50.00;;;;;;5069056;28;21012;-66
2022/07/14 12:05:57;;;;;;;15.60;14.80;;;29.40;50.40;;;;;;5069511;28;21123;-66
2022/07/14 12:08:27;;;;;;;16.73;15.53;;;29.90;50.50;;;;;;5069457;28;20456;-66
2022/07/14 12:10:54;;;;;;;15.77;14.97;;;30.20;48.90;;;;;;5069818;28;20469;-66
2022/07/14 12:13:21;;;;;;;16.70;15.60;;;30.70;49.50;;;;;;5069158;28;20519;-69
2022/07/14 12:15:48;;;;;;;16.37;15.10;;;30.80;48.70;;;;;;5069520;28;20466;-66
2022/07/14 12:18:15;;;;;;;16.40;15.20;;;30.10;49.70;;;;;;5069338;28;20460;-66
2022/07/14 12:20:44;;;;;;;18.20;16.03;;;30.00;49.20;;;;;;5069996;28;21037;-66
2022/07/14 12:23:12;;;;;;;15.50;14.53;;;30.10;49.60;;;;;;5069524;28;20469;-67
2022/07/14 12:25:41;;;;;;;16.17;15.00;;;30.00;48.50;;;;;;5069298;28;20508;-65
2022/07/14 12:28:10;;;;;;;15.37;14.47;;;29.60;50.10;;;;;;5069508;28;20538;-66
2022/07/14 12:30:48;;;;;;;15.30;14.37;;;29.50;49.30;;;;;;5070410;28;20505;-66
2022/07/14 12:33:17;;;;;;;15.40;14.50;;;28.70;51.20;;;;;;5068816;28;21051;-65
2022/07/14 12:35:46;;;;;;;16.20;15.20;;;28.20;52.10;;;;;;5068611;28;20980;-66
2022/07/14 12:38:13;;;;;;;15.53;14.57;;;28.40;51.20;;;;;;5069966;28;20462;-66
2022/07/14 12:40:42;;;;;;;16.00;14.90;;;29.00;51.40;;;;;;5069359;28;20473;-66
2022/07/14 12:43:10;;;;;;;16.23;15.00;;;29.50;51.40;;;;;;5069208;28;20458;-65
2022/07/14 12:45:58;;;;;;;16.00;15.00;;;30.00;49.80;;;;;;5068913;28;20493;-67
2022/07/14 12:48:25;;;;;;;16.37;15.30;;;29.90;49.40;;;;;;5068879;28;21145;-67
2022/07/14 12:50:52;;;;;;;16.30;15.23;;;30.00;49.00;;;;;;5065157;28;20940;-67
2022/07/14 12:53:19;;;;;;;15.63;14.83;;;29.50;50.40;;;;;;5067206;28;20800;-67
2022/07/14 12:55:48;;;;;;;16.57;15.50;;;28.90;50.40;;;;;;5068823;28;20462;-67